createdAt,value
2022-09-16T00:00:45.787Z,100404.41
2022-09-16T00:03:14.433Z,100411.56
2022-09-16T00:05:43.377Z,100404.63
2022-09-16T00:08:13.201Z,100407.53
2022-09-16T00:10:41.256Z,100405.13
2022-09-16T00:13:09.250Z,100414.97
2022-09-16T00:15:37.482Z,100411.69
2022-09-16T00:18:05.700Z,100403.78
2022-09-16T00:20:33.534Z,100412.66
2022-09-16T00:23:01.365Z,100411.19
2022-09-16T00:25:30.717Z,100411.66
2022-09-16T00:27:58.567Z,100408.97
2022-09-16T00:30:26.467Z,100406.31
2022-09-16T00:32:54.485Z,100401.41
2022-09-16T00:35:22.983Z,100401.66
2022-09-16T00:37:50.836Z,100412.50
2022-09-16T00:40:19.115Z,100404.38
2022-09-16T00:42:48.360Z,100419.84
2022-09-16T00:45:19.033Z,100419.47
2022-09-16T00:47:52.196Z,100436.81
2022-09-16T00:50:24.038Z,100434.63
2022-09-16T00:52:55.016Z,100430.94
2022-09-16T00:55:26.970Z,100417.94
2022-09-16T00:57:58.600Z,100423.16
2022-09-16T01:00:26.808Z,100424.25
2022-09-16T01:02:54.723Z,100423.31
2022-09-16T01:05:25.886Z,100418.28
2022-09-16T01:07:55.536Z,100424.03
2022-09-16T01:10:25.332Z,100430.34
2022-09-16T01:12:58.376Z,100433.28
2022-09-16T01:15:33.200Z,100434.03
2022-09-16T01:18:12.450Z,100431.22
2022-09-16T01:21:19.012Z,100425.50
2022-09-16T01:24:35.366Z,100426.84
2022-09-16T01:27:31.567Z,100419.66
2022-09-16T01:30:35.088Z,100427.34
2022-09-16T01:33:09.100Z,100425.97
2022-09-16T01:35:49.127Z,100421.38
2022-09-16T01:38:30.137Z,100410.03
2022-09-16T01:41:08.225Z,100419.28
2022-09-16T01:43:48.622Z,100414.38
2022-09-16T01:46:24.150Z,100425.56
2022-09-16T01:48:59.937Z,100418.16
2022-09-16T01:51:32.904Z,100415.84
2022-09-16T01:54:08.332Z,100413.78
2022-09-16T01:56:44.112Z,100404.13
2022-09-16T01:59:18.879Z,100408.97
2022-09-16T02:01:54.374Z,100404.94
2022-09-16T02:04:27.740Z,100392.03
2022-09-16T02:06:58.657Z,100398.94
2022-09-16T02:09:32.097Z,100397.88
2022-09-16T02:12:05.762Z,100394.47
2022-09-16T02:14:36.643Z,100393.72
2022-09-16T02:17:08.352Z,100396.53
2022-09-16T02:19:41.861Z,100389.88
2022-09-16T02:22:14.411Z,100396.44
2022-09-16T02:24:46.044Z,100386.69
2022-09-16T02:27:18.175Z,100394.38
2022-09-16T02:29:50.560Z,100388.63
2022-09-16T02:32:21.594Z,100389.94
2022-09-16T02:34:54.745Z,100397.09
2022-09-16T02:37:28.359Z,100385.09
2022-09-16T02:40:02.446Z,100399.13
2022-09-16T02:42:31.312Z,100396.84
2022-09-16T02:45:00.519Z,100398.81
2022-09-16T02:47:33.144Z,100394.81
2022-09-16T02:50:11.173Z,100387.53
2022-09-16T02:52:45.586Z,100377.09
2022-09-16T02:55:21.652Z,100383.13
2022-09-16T02:57:50.702Z,100383.13
2022-09-16T03:00:18.806Z,100388.81
2022-09-16T03:02:46.720Z,100385.91
2022-09-16T03:05:16.089Z,100382.03
2022-09-16T03:07:44.336Z,100380.03
2022-09-16T03:10:15.137Z,100380.59
2022-09-16T03:12:57.940Z,100378.31
2022-09-16T03:15:38.178Z,100385.09
2022-09-16T03:18:23.946Z,100380.91
2022-09-16T03:21:01.305Z,100375.03
2022-09-16T03:23:43.339Z,100366.56
2022-09-16T03:26:20.977Z,100373.81
2022-09-16T03:28:57.596Z,100364.22
2022-09-16T03:31:29.606Z,100362.63
2022-09-16T03:34:06.957Z,100370.91
2022-09-16T03:36:40.773Z,100376.38
2022-09-16T03:39:11.423Z,100369.25
2022-09-16T03:41:39.608Z,100363.91
2022-09-16T03:44:07.475Z,100362.78
2022-09-16T03:46:35.707Z,100357.56
2022-09-16T03:49:04.002Z,100341.84
2022-09-16T03:51:31.942Z,100357.03
2022-09-16T03:54:01.275Z,100355.78
2022-09-16T03:56:29.215Z,100349.50
2022-09-16T03:58:57.097Z,100360.19
2022-09-16T04:01:25.129Z,100357.38
2022-09-16T04:03:53.432Z,100355.59
2022-09-16T04:06:21.328Z,100370.38
2022-09-16T04:08:50.805Z,100365.47
2022-09-16T04:11:20.164Z,100374.34
2022-09-16T04:13:47.987Z,100366.75
2022-09-16T04:16:21.336Z,100364.56
2022-09-16T04:18:49.823Z,100354.47
2022-09-16T04:21:18.440Z,100350.00
2022-09-16T04:23:46.621Z,100346.34
2022-09-16T04:26:14.587Z,100350.19
2022-09-16T04:28:44.379Z,100350.16
2022-09-16T04:31:14.058Z,100348.06
2022-09-16T04:33:42.435Z,100347.94
2022-09-16T04:36:12.656Z,100343.09
2022-09-16T04:38:41.444Z,100338.44
2022-09-16T04:41:11.546Z,100342.84
2022-09-16T04:43:39.938Z,100341.22
2022-09-16T04:46:10.526Z,100332.47
2022-09-16T04:48:39.048Z,100342.88
2022-09-16T04:51:08.820Z,100331.59
2022-09-16T04:53:37.086Z,100333.72
2022-09-16T04:56:07.206Z,100339.56
2022-09-16T04:58:35.563Z,100342.97
2022-09-16T05:01:12.862Z,100342.38
2022-09-16T05:03:41.356Z,100352.97
2022-09-16T05:06:11.251Z,100358.13
2022-09-16T05:08:39.757Z,100366.03
2022-09-16T05:11:10.078Z,100357.69
2022-09-16T05:13:38.668Z,100354.34
2022-09-16T05:16:08.251Z,100348.31
2022-09-16T05:18:38.287Z,100334.81
2022-09-16T05:21:08.709Z,100344.97
2022-09-16T05:23:37.994Z,100338.28
2022-09-16T05:26:08.577Z,100341.19
2022-09-16T05:28:37.224Z,100344.44
2022-09-16T05:31:12.862Z,100340.09
2022-09-16T05:33:44.951Z,100342.09
2022-09-16T05:36:15.571Z,100346.88
2022-09-16T05:38:59.091Z,100336.09
2022-09-16T05:41:32.005Z,100340.03
2022-09-16T05:44:00.578Z,100344.72
2022-09-16T05:46:29.603Z,100350.94
2022-09-16T05:48:59.183Z,100343.16
2022-09-16T05:51:27.310Z,100346.44
2022-09-16T05:53:56.643Z,100341.56
2022-09-16T05:56:26.906Z,100344.72
2022-09-16T05:58:55.924Z,100345.56
2022-09-16T06:01:26.210Z,100346.13
2022-09-16T06:03:55.174Z,100336.00
2022-09-16T06:06:26.819Z,100335.22
2022-09-16T06:08:56.618Z,100332.69
2022-09-16T06:11:25.751Z,100338.31
2022-09-16T06:13:56.584Z,100329.78
2022-09-16T06:16:26.660Z,100330.28
2022-09-16T06:18:55.514Z,100336.97
2022-09-16T06:21:25.170Z,100336.09
2022-09-16T06:23:53.655Z,100339.09
2022-09-16T06:26:23.478Z,100338.41
2022-09-16T06:28:53.030Z,100331.81
2022-09-16T06:31:27.018Z,100328.19
2022-09-16T06:33:55.983Z,100314.16
2022-09-16T06:36:28.829Z,100319.19
2022-09-16T06:38:57.264Z,100315.69
2022-09-16T06:41:25.986Z,100317.28
2022-09-16T06:43:54.085Z,100322.50
2022-09-16T06:46:24.069Z,100320.09
2022-09-16T06:48:53.759Z,100309.00
2022-09-16T06:51:24.211Z,100310.72
2022-09-16T06:53:55.279Z,100312.78
2022-09-16T06:56:23.476Z,100309.00
2022-09-16T06:58:53.120Z,100297.81
2022-09-16T07:01:22.263Z,100302.22
2022-09-16T07:03:52.074Z,100301.59
2022-09-16T07:06:21.793Z,100300.47
2022-09-16T07:08:50.051Z,100301.22
2022-09-16T07:11:20.770Z,100304.84
2022-09-16T07:13:49.861Z,100303.09
2022-09-16T07:16:19.529Z,100302.34
2022-09-16T07:18:48.582Z,100302.72
2022-09-16T07:21:18.131Z,100304.25
2022-09-16T07:23:47.068Z,100301.66
2022-09-16T07:26:17.211Z,100312.63
2022-09-16T07:28:48.081Z,100309.59
2022-09-16T07:31:18.993Z,100297.78
2022-09-16T07:33:49.729Z,100298.00
2022-09-16T07:36:19.804Z,100292.19
2022-09-16T07:38:48.174Z,100291.31
2022-09-16T07:41:18.362Z,100295.63
2022-09-16T07:43:48.241Z,100287.19
2022-09-16T07:46:17.893Z,100286.50
2022-09-16T07:48:46.860Z,100280.53
2022-09-16T07:51:17.011Z,100282.94
2022-09-16T07:53:45.497Z,100288.31
2022-09-16T07:56:15.388Z,100291.00
2022-09-16T07:58:45.173Z,100280.88
2022-09-16T08:01:16.193Z,100289.94
2022-09-16T08:03:45.257Z,100299.72
2022-09-16T08:06:14.942Z,100304.41
2022-09-16T08:08:43.340Z,100306.16
2022-09-16T08:11:12.719Z,100295.78
2022-09-16T08:13:41.421Z,100301.50
2022-09-16T08:16:12.473Z,100305.28
2022-09-16T08:18:42.154Z,100295.72
2022-09-16T08:21:11.695Z,100298.78
2022-09-16T08:23:40.789Z,100287.38
2022-09-16T08:26:10.678Z,100289.97
2022-09-16T08:28:50.957Z,100285.47
2022-09-16T08:31:25.829Z,100291.38
2022-09-16T08:33:55.098Z,100284.97
2022-09-16T08:36:24.888Z,100296.44
2022-09-16T08:38:55.704Z,100302.72
2022-09-16T08:41:42.946Z,100295.84
2022-09-16T08:44:21.543Z,100305.31
2022-09-16T08:46:54.433Z,100305.44
2022-09-16T08:49:31.796Z,100307.00
2022-09-16T08:52:03.033Z,100313.56
2022-09-16T08:54:35.881Z,100311.59
2022-09-16T08:57:06.747Z,100323.25
2022-09-16T08:59:40.993Z,100306.34
2022-09-16T09:02:25.489Z,100314.31
2022-09-16T09:04:55.366Z,100319.16
2022-09-16T09:07:34.014Z,100315.81
2022-09-16T09:10:16.086Z,100314.66
2022-09-16T09:12:50.465Z,100300.00
2022-09-16T09:15:31.348Z,100313.94
2022-09-16T09:18:15.292Z,100300.06
2022-09-16T09:20:54.519Z,100302.34
2022-09-16T09:23:51.681Z,100302.06
2022-09-16T09:26:23.419Z,100298.69
2022-09-16T09:29:19.339Z,100294.25
2022-09-16T09:31:57.110Z,100301.53
2022-09-16T09:34:41.036Z,100302.19
2022-09-16T09:37:30.681Z,100302.25
2022-09-16T09:40:08.263Z,100292.78
2022-09-16T09:42:40.515Z,100289.25
2022-09-16T09:45:20.288Z,100273.66
2022-09-16T09:47:52.025Z,100280.88
2022-09-16T09:50:23.978Z,100280.19
2022-09-16T09:52:59.092Z,100280.09
2022-09-16T09:55:28.874Z,100281.78
2022-09-16T09:58:05.526Z,100269.91
2022-09-16T10:00:33.851Z,100258.16
2022-09-16T10:03:08.946Z,100273.19
2022-09-16T10:05:36.879Z,100264.16
2022-09-16T10:08:27.186Z,100269.56
2022-09-16T10:10:57.045Z,100270.84
2022-09-16T10:13:26.814Z,100262.25
2022-09-16T10:15:56.720Z,100267.81
2022-09-16T10:18:27.667Z,100270.91
2022-09-16T10:21:05.310Z,100266.44
2022-09-16T10:23:36.177Z,100260.66
2022-09-16T10:26:21.341Z,100255.91
2022-09-16T10:29:01.471Z,100257.50
2022-09-16T10:31:35.777Z,100250.72
2022-09-16T10:34:05.807Z,100257.50
2022-09-16T10:36:36.136Z,100256.97
2022-09-16T10:39:06.892Z,100243.69
2022-09-16T10:41:41.809Z,100241.72
2022-09-16T10:44:17.683Z,100234.03
2022-09-16T10:46:53.546Z,100223.84
2022-09-16T10:49:26.609Z,100233.16
2022-09-16T10:51:54.501Z,100237.22
2022-09-16T10:54:29.476Z,100230.63
2022-09-16T10:56:57.479Z,100224.78
2022-09-16T10:59:25.381Z,100216.50
2022-09-16T11:02:05.773Z,100212.00
2022-09-16T11:04:47.928Z,100220.47
2022-09-16T11:07:28.442Z,100207.16
2022-09-16T11:10:09.382Z,100200.25
2022-09-16T11:13:10.396Z,100206.41
2022-09-16T11:15:50.666Z,100206.06
2022-09-16T11:18:31.525Z,100219.69
2022-09-16T11:21:14.967Z,100225.91
2022-09-16T11:24:03.180Z,100243.50
2022-09-16T11:26:40.794Z,100245.81
2022-09-16T11:29:27.467Z,100260.31
2022-09-16T11:32:03.979Z,100244.47
2022-09-16T11:34:44.812Z,100236.25
2022-09-16T11:37:23.844Z,100225.81
2022-09-16T11:40:06.659Z,100222.09
2022-09-16T11:42:41.739Z,100226.66
2022-09-16T11:45:25.470Z,100226.59
2022-09-16T11:48:16.171Z,100218.34
2022-09-16T11:50:50.856Z,100213.34
2022-09-16T11:53:39.627Z,100210.09
2022-09-16T11:56:15.443Z,100201.09
2022-09-16T11:58:48.291Z,100197.22
2022-09-16T12:01:27.939Z,100203.16
2022-09-16T12:04:03.426Z,100188.84
2022-09-16T12:06:39.440Z,100186.03
2022-09-16T12:09:13.960Z,100178.59
2022-09-16T12:11:46.029Z,100171.50
2022-09-16T12:14:19.780Z,100168.78
2022-09-16T12:16:51.797Z,100161.00
2022-09-16T12:19:24.992Z,100148.59
2022-09-16T12:21:58.425Z,100162.34
2022-09-16T12:24:37.685Z,100154.41
2022-09-16T12:27:10.868Z,100171.91
2022-09-16T12:29:49.805Z,100208.94
2022-09-16T12:32:24.222Z,100208.47
2022-09-16T12:35:00.782Z,100197.03
2022-09-16T12:37:36.379Z,100184.75
2022-09-16T12:40:07.454Z,100173.13
2022-09-16T12:43:08.043Z,100158.38
2022-09-16T12:45:58.233Z,100159.69
2022-09-16T12:48:47.519Z,100153.13
2022-09-16T12:51:38.837Z,100145.59
2022-09-16T12:55:07.288Z,100146.22
2022-09-16T12:57:46.423Z,100155.88
2022-09-16T13:00:20.308Z,100171.97
2022-09-16T13:02:53.417Z,100167.38
2022-09-16T13:05:33.055Z,100175.66
2022-09-16T13:08:06.783Z,100166.72
2022-09-16T13:11:00.692Z,100165.75
2022-09-16T13:13:33.906Z,100154.16
2022-09-16T13:16:04.292Z,100165.47
2022-09-16T13:18:45.184Z,100175.94
2022-09-16T13:21:25.787Z,100159.53
2022-09-16T13:24:02.458Z,100187.13
2022-09-16T13:26:40.432Z,100172.97
2022-09-16T13:29:31.973Z,100153.03
2022-09-16T13:32:00.053Z,100156.16
2022-09-16T13:34:30.177Z,100154.44
2022-09-16T13:36:58.631Z,100152.63
2022-09-16T13:39:31.027Z,100147.50
2022-09-16T13:42:10.457Z,100147.66
2022-09-16T13:44:43.287Z,100139.91
2022-09-16T13:47:17.443Z,100148.09
2022-09-16T13:49:51.609Z,100146.25
2022-09-16T13:52:22.988Z,100157.25
2022-09-16T13:55:09.846Z,100154.97
2022-09-16T13:57:49.528Z,100144.94
2022-09-16T14:00:22.172Z,100149.31
2022-09-16T14:03:16.630Z,100144.47
2022-09-16T14:06:11.404Z,100141.72
2022-09-16T14:08:51.641Z,100147.78
2022-09-16T14:11:29.944Z,100137.81
2022-09-16T14:14:05.834Z,100124.56
2022-09-16T14:16:37.149Z,100110.06
2022-09-16T14:19:08.224Z,100101.75
2022-09-16T14:21:38.561Z,100111.00
2022-09-16T14:24:17.740Z,100107.38
2022-09-16T14:26:53.603Z,100104.97
2022-09-16T14:29:22.698Z,100087.22
2022-09-16T14:31:53.768Z,100097.81
2022-09-16T14:34:28.647Z,100077.41
2022-09-16T14:36:58.296Z,100073.63
2022-09-16T14:39:28.892Z,100068.66
2022-09-16T14:41:59.574Z,100048.97
2022-09-16T14:44:33.933Z,100034.25
2022-09-16T14:47:09.461Z,100038.38
2022-09-16T14:49:41.054Z,100024.69
2022-09-16T14:52:20.849Z,100026.84
2022-09-16T14:54:48.970Z,100030.53
2022-09-16T14:57:20.770Z,100014.31
2022-09-16T14:59:48.913Z,100013.97
2022-09-16T15:02:22.205Z,100010.78
2022-09-16T15:04:53.836Z,100020.84
2022-09-16T15:07:25.438Z,100017.09
2022-09-16T15:09:57.200Z,100001.03
2022-09-16T15:12:29.464Z,99985.94
2022-09-16T15:14:57.881Z,99979.19
2022-09-16T15:17:29.166Z,99972.69
2022-09-16T15:20:00.356Z,99956.84
2022-09-16T15:22:29.724Z,99959.13
2022-09-16T15:24:59.672Z,99963.56
2022-09-16T15:27:29.868Z,99959.63
2022-09-16T15:30:00.328Z,99961.84
2022-09-16T15:32:31.950Z,99954.25
2022-09-16T15:35:21.295Z,99946.97
2022-09-16T15:37:51.366Z,99951.59
2022-09-16T15:40:33.941Z,99948.28
2022-09-16T15:43:04.994Z,99952.53
2022-09-16T15:45:33.106Z,99950.66
2022-09-16T15:48:03.213Z,99955.72
2022-09-16T15:50:39.549Z,99943.75
2022-09-16T15:53:12.115Z,99961.34
2022-09-16T15:55:52.301Z,99956.50
2022-09-16T15:58:39.698Z,99947.59
2022-09-16T16:01:13.337Z,99944.34
2022-09-16T16:03:53.097Z,99943.47
2022-09-16T16:06:21.466Z,99949.13
2022-09-16T16:08:52.220Z,99948.63
2022-09-16T16:11:22.082Z,99959.16
2022-09-16T16:13:51.296Z,99951.13
2022-09-16T16:16:19.962Z,99943.81
2022-09-16T16:18:48.082Z,99944.50
2022-09-16T16:21:17.795Z,99951.47
2022-09-16T16:23:45.625Z,99949.41
2022-09-16T16:26:15.058Z,99944.31
2022-09-16T16:28:42.890Z,99947.16
2022-09-16T16:31:12.676Z,99958.97
2022-09-16T16:33:44.643Z,99959.16
2022-09-16T16:36:13.747Z,99962.69
2022-09-16T16:38:41.730Z,99961.56
2022-09-16T16:41:12.388Z,99967.22
2022-09-16T16:43:41.921Z,99967.66
2022-09-16T16:46:09.876Z,99965.94
2022-09-16T16:48:39.273Z,99964.13
2022-09-16T16:51:09.255Z,99970.47
2022-09-16T16:53:37.658Z,99979.69
2022-09-16T16:56:10.271Z,99979.69
2022-09-16T16:58:43.581Z,99982.22
2022-09-16T17:01:13.238Z,99989.72
2022-09-16T17:03:41.734Z,99993.66
2022-09-16T17:06:10.133Z,99989.31
2022-09-16T17:08:38.421Z,99997.78
2022-09-16T17:11:08.082Z,99996.38
2022-09-16T17:13:35.903Z,100008.53
2022-09-16T17:16:05.584Z,100011.75
2022-09-16T17:18:35.171Z,100015.00
2022-09-16T17:21:05.095Z,100019.97
2022-09-16T17:23:33.528Z,100030.16
2022-09-16T17:26:01.814Z,100030.66
2022-09-16T17:28:30.177Z,100038.31
2022-09-16T17:30:58.440Z,100039.28
2022-09-16T17:33:27.910Z,100044.94
2022-09-16T17:36:02.879Z,100051.88
2022-09-16T17:38:30.745Z,100047.34
2022-09-16T17:41:04.170Z,100058.34
2022-09-16T17:43:32.970Z,100072.44
2022-09-16T17:46:01.512Z,100063.84
2022-09-16T17:48:31.991Z,100067.22
2022-09-16T17:51:00.462Z,100064.13
2022-09-16T17:53:28.397Z,100069.88
2022-09-16T17:56:04.019Z,100076.25
2022-09-16T17:58:32.016Z,100082.16
2022-09-16T18:01:06.355Z,100084.13
2022-09-16T18:03:36.410Z,100089.50
2022-09-16T18:06:09.275Z,100101.59
2022-09-16T18:08:38.131Z,100094.00
2022-09-16T18:11:07.191Z,100102.19
2022-09-16T18:13:36.047Z,100099.94
2022-09-16T18:16:05.925Z,100095.94
2022-09-16T18:18:36.852Z,100095.81
2022-09-16T18:21:06.070Z,100098.50
2022-09-16T18:23:34.341Z,100089.00
2022-09-16T18:26:06.406Z,100099.50
2022-09-16T18:28:58.098Z,100105.53
2022-09-16T18:31:25.105Z,100107.66
2022-09-16T18:33:55.179Z,100100.47
2022-09-16T18:36:25.488Z,100101.47
2022-09-16T18:38:54.228Z,100114.53
2022-09-16T18:41:23.826Z,100117.41
2022-09-16T18:43:54.837Z,100118.69
2022-09-16T18:46:26.756Z,100126.47
2022-09-16T18:48:57.019Z,100128.63
2022-09-16T18:51:27.518Z,100136.84
2022-09-16T18:53:57.970Z,100137.81
2022-09-16T18:56:26.920Z,100141.50
2022-09-16T18:59:19.916Z,100143.91
2022-09-16T19:01:48.694Z,100152.97
2022-09-16T19:04:20.142Z,100153.63
2022-09-16T19:06:50.463Z,100152.81
2022-09-16T19:09:20.164Z,100152.69
2022-09-16T19:11:48.272Z,100163.41
2022-09-16T19:14:16.262Z,100159.00
2022-09-16T19:16:46.278Z,100161.97
2022-09-16T19:19:16.510Z,100171.28
2022-09-16T19:21:45.782Z,100169.44
2022-09-16T19:24:16.393Z,100170.69
2022-09-16T19:26:45.429Z,100172.34
2022-09-16T19:29:14.778Z,100181.94
2022-09-16T19:31:45.297Z,100186.81
2022-09-16T19:34:13.622Z,100190.22
2022-09-16T19:36:41.921Z,100189.47
2022-09-16T19:39:12.555Z,100194.22
2022-09-16T19:41:42.096Z,100192.81
2022-09-16T19:44:12.575Z,100203.44
2022-09-16T19:46:42.651Z,100202.47
2022-09-16T19:49:14.939Z,100198.22
2022-09-16T19:51:43.300Z,100199.91
2022-09-16T19:54:13.169Z,100196.66
2022-09-16T19:56:41.214Z,100206.78
2022-09-16T19:59:09.729Z,100220.06
2022-09-16T20:01:38.607Z,100208.00
2022-09-16T20:04:09.246Z,100212.66
2022-09-16T20:06:38.884Z,100213.97
2022-09-16T20:09:08.860Z,100216.78
2022-09-16T20:11:40.382Z,100216.91
2022-09-16T20:14:09.609Z,100220.31
2022-09-16T20:16:39.269Z,100217.88
2022-09-16T20:19:10.497Z,100221.19
2022-09-16T20:21:39.195Z,100214.53
2022-09-16T20:24:08.738Z,100219.78
2022-09-16T20:26:37.404Z,100229.97
2022-09-16T20:29:09.397Z,100225.38
2022-09-16T20:31:38.544Z,100224.03
2022-09-16T20:34:06.990Z,100224.16
2022-09-16T20:36:39.320Z,100230.63
2022-09-16T20:39:08.940Z,100232.84
2022-09-16T20:41:38.213Z,100231.88
2022-09-16T20:44:08.021Z,100231.59
2022-09-16T20:46:38.752Z,100234.16
2022-09-16T20:49:10.711Z,100236.09
2022-09-16T20:51:38.869Z,100237.97
2022-09-16T20:54:09.393Z,100246.00
2022-09-16T20:56:39.842Z,100243.56
2022-09-16T20:59:10.566Z,100247.81
2022-09-16T21:01:39.855Z,100250.03
2022-09-16T21:04:11.271Z,100256.09
2022-09-16T21:06:40.095Z,100254.13
2022-09-16T21:09:10.219Z,100258.06
2022-09-16T21:11:43.685Z,100260.63
2022-09-16T21:14:16.212Z,100261.44
2022-09-16T21:16:45.796Z,100269.47
2022-09-16T21:19:14.160Z,100276.69
2022-09-16T21:21:45.981Z,100274.16
2022-09-16T21:24:14.165Z,100277.06
2022-09-16T21:26:43.929Z,100278.03
2022-09-16T21:29:15.598Z,100278.88
2022-09-16T21:31:44.377Z,100291.66
2022-09-16T21:34:15.253Z,100299.69
2022-09-16T21:36:44.964Z,100290.91
2022-09-16T21:39:13.555Z,100287.00
2022-09-16T21:41:41.493Z,100293.81
2022-09-16T21:44:09.450Z,100304.69
2022-09-16T21:46:41.516Z,100304.94
2022-09-16T21:49:22.587Z,100302.25
2022-09-16T21:51:51.128Z,100308.84
2022-09-16T21:54:20.469Z,100308.84
2022-09-16T21:56:49.208Z,100310.41
2022-09-16T21:59:17.545Z,100316.03
2022-09-16T22:01:47.455Z,100301.41
2022-09-16T22:04:17.453Z,100301.88
2022-09-16T22:06:45.347Z,100304.91
2022-09-16T22:09:13.473Z,100309.91
2022-09-16T22:11:42.855Z,100311.38
2022-09-16T22:14:12.340Z,100311.84
2022-09-16T22:16:41.468Z,100311.84
2022-09-16T22:19:13.075Z,100314.00
2022-09-16T22:21:42.416Z,100316.09
2022-09-16T22:24:10.725Z,100314.00
2022-09-16T22:26:38.836Z,100314.34
2022-09-16T22:29:09.037Z,100316.66
2022-09-16T22:31:39.096Z,100318.47
2022-09-16T22:34:07.052Z,100315.34
2022-09-16T22:36:37.671Z,100311.19
2022-09-16T22:39:07.486Z,100310.84
2022-09-16T22:41:36.064Z,100316.53
2022-09-16T22:44:04.543Z,100315.28
2022-09-16T22:46:34.397Z,100317.47
2022-09-16T22:49:02.614Z,100323.00
2022-09-16T22:51:30.614Z,100318.97
2022-09-16T22:54:00.033Z,100317.16
2022-09-16T22:56:32.087Z,100322.38
2022-09-16T22:59:02.591Z,100325.06
2022-09-16T23:01:32.919Z,100321.41
2022-09-16T23:04:02.870Z,100327.22
2022-09-16T23:06:32.248Z,100322.72
2022-09-16T23:09:02.008Z,100333.44
2022-09-16T23:11:32.544Z,100334.56
2022-09-16T23:14:01.509Z,100334.03
2022-09-16T23:16:31.307Z,100323.63
2022-09-16T23:19:00.785Z,100318.03
2022-09-16T23:21:29.524Z,100331.88
2022-09-16T23:24:00.975Z,100320.28
2022-09-16T23:26:31.965Z,100322.97
2022-09-16T23:29:01.686Z,100326.38
2022-09-16T23:31:31.239Z,100325.38
2022-09-16T23:33:59.732Z,100333.84
2022-09-16T23:36:28.875Z,100326.38
2022-09-16T23:38:57.030Z,100324.81
2022-09-16T23:41:27.718Z,100320.69
2022-09-16T23:43:57.883Z,100330.31
2022-09-16T23:46:28.807Z,100329.34
2022-09-16T23:48:56.745Z,100329.44
2022-09-16T23:51:28.511Z,100324.34
2022-09-16T23:53:57.660Z,100329.41
2022-09-16T23:56:25.894Z,100323.50
2022-09-16T23:58:54.022Z,100327.56
